createdAt,value
2022-11-09T00:01:10.690Z,13.70
2022-11-09T00:03:38.796Z,13.90
2022-11-09T00:08:39.121Z,13.90
2022-11-09T00:11:12.209Z,13.90
2022-11-09T00:13:43.868Z,13.90
2022-11-09T00:16:16.993Z,13.90
2022-11-09T00:18:47.486Z,14.00
2022-11-09T00:21:19.331Z,14.00
2022-11-09T00:23:49.170Z,14.00
2022-11-09T00:26:22.978Z,14.00
2022-11-09T00:28:52.714Z,13.80
2022-11-09T00:31:22.882Z,13.90
2022-11-09T00:36:23.445Z,13.90
2022-11-09T00:41:26.857Z,13.90
2022-11-09T00:43:57.090Z,13.90
2022-11-09T00:46:27.877Z,13.80
2022-11-09T00:48:56.814Z,13.90
2022-11-09T00:51:26.046Z,13.80
2022-11-09T00:53:58.421Z,13.80
2022-11-09T00:58:58.004Z,13.80
2022-11-09T01:01:28.493Z,13.80
2022-11-09T01:06:28.165Z,13.70
2022-11-09T01:11:29.414Z,13.50
2022-11-09T01:14:00.442Z,14.10
2022-11-09T01:21:30.604Z,13.60
2022-11-09T01:24:01.830Z,13.90
2022-11-09T01:26:35.212Z,13.60
2022-11-09T01:29:03.530Z,13.80
2022-11-09T01:34:04.792Z,13.80
2022-11-09T01:36:35.823Z,13.90
2022-11-09T01:39:03.988Z,14.00
2022-11-09T01:41:33.675Z,13.80
2022-11-09T01:44:11.632Z,13.80
2022-11-09T01:46:50.455Z,14.00
2022-11-09T01:49:37.272Z,14.00
2022-11-09T01:57:25.775Z,14.00
2022-11-09T02:00:00.730Z,14.00
2022-11-09T02:02:30.254Z,14.00
2022-11-09T02:05:03.104Z,14.00
2022-11-09T02:07:31.842Z,14.00
2022-11-09T02:10:09.821Z,13.90
2022-11-09T02:15:13.295Z,13.80
2022-11-09T02:17:44.449Z,13.90
2022-11-09T02:20:17.741Z,13.70
2022-11-09T02:22:46.102Z,13.60
2022-11-09T02:25:16.002Z,13.70
2022-11-09T02:27:45.416Z,13.20
2022-11-09T02:30:16.184Z,14.30
2022-11-09T02:32:44.380Z,13.80
2022-11-09T02:37:50.856Z,13.80
2022-11-09T02:40:26.738Z,13.80
2022-11-09T02:42:57.292Z,13.80
2022-11-09T02:45:25.667Z,13.80
2022-11-09T02:47:57.204Z,13.80
2022-11-09T02:50:29.739Z,13.90
2022-11-09T02:53:00.701Z,13.80
2022-11-09T03:00:32.977Z,13.80
2022-11-09T03:05:33.981Z,13.80
2022-11-09T03:08:05.784Z,13.80
2022-11-09T03:13:07.354Z,13.70
2022-11-09T03:18:09.403Z,13.70
2022-11-09T03:20:40.235Z,13.60
2022-11-09T03:30:43.252Z,13.50
2022-11-09T03:33:14.228Z,13.40
2022-11-09T03:35:46.066Z,13.40
2022-11-09T03:38:18.410Z,13.30
2022-11-09T03:40:48.976Z,13.30
2022-11-09T03:43:18.751Z,13.30
2022-11-09T03:45:49.639Z,13.30
2022-11-09T03:48:20.296Z,13.30
2022-11-09T03:50:52.212Z,13.20
2022-11-09T03:53:21.749Z,13.20
2022-11-09T03:55:50.324Z,13.30
2022-11-09T03:58:19.640Z,13.20
2022-11-09T04:00:51.405Z,13.70
2022-11-09T04:03:22.217Z,13.20
2022-11-09T04:10:52.926Z,13.20
2022-11-09T04:13:22.561Z,13.10
2022-11-09T04:15:53.307Z,13.10
2022-11-09T04:18:22.887Z,13.10
2022-11-09T04:20:53.663Z,13.10
2022-11-09T04:23:22.049Z,13.10
2022-11-09T04:25:52.856Z,13.00
2022-11-09T04:28:22.224Z,13.30
2022-11-09T04:30:50.628Z,13.30
2022-11-09T04:33:20.333Z,13.00
2022-11-09T04:35:48.791Z,13.10
2022-11-09T04:40:48.879Z,13.00
2022-11-09T04:43:18.450Z,13.00
2022-11-09T04:45:49.193Z,13.00
2022-11-09T04:48:18.823Z,13.00
2022-11-09T04:50:48.144Z,12.70
2022-11-09T04:53:18.853Z,13.00
2022-11-09T05:00:54.762Z,13.00
2022-11-09T05:03:23.293Z,12.50
2022-11-09T05:05:54.024Z,13.00
2022-11-09T05:08:24.704Z,13.00
2022-11-09T05:10:53.234Z,13.00
2022-11-09T05:13:23.644Z,12.60
2022-11-09T05:15:51.791Z,13.00
2022-11-09T05:18:21.076Z,13.00
2022-11-09T05:20:50.932Z,13.00
2022-11-09T05:26:07.661Z,13.10
2022-11-09T05:31:08.692Z,13.20
2022-11-09T05:33:39.141Z,13.10
2022-11-09T05:36:10.356Z,13.10
2022-11-09T05:38:39.689Z,13.10
2022-11-09T05:41:11.816Z,13.10
2022-11-09T05:43:41.373Z,13.00
2022-11-09T05:46:12.051Z,13.00
2022-11-09T05:48:41.914Z,13.00
2022-11-09T05:51:15.074Z,13.10
2022-11-09T05:56:19.010Z,13.00
2022-11-09T05:58:47.178Z,12.80
2022-11-09T06:03:47.507Z,12.90
2022-11-09T06:06:19.409Z,13.00
2022-11-09T06:08:47.846Z,13.10
2022-11-09T06:11:23.609Z,13.10
2022-11-09T06:16:26.781Z,13.30
2022-11-09T06:18:55.015Z,13.30
2022-11-09T06:21:24.924Z,13.00
2022-11-09T06:23:53.047Z,13.30
2022-11-09T06:26:25.062Z,13.30
2022-11-09T06:28:53.229Z,13.30
2022-11-09T06:31:24.772Z,13.30
2022-11-09T06:36:23.866Z,13.40
2022-11-09T06:38:53.310Z,13.40
2022-11-09T06:41:26.238Z,13.50
2022-11-09T06:46:26.407Z,13.50
2022-11-09T06:48:54.858Z,13.50
2022-11-09T06:51:25.856Z,13.60
2022-11-09T06:56:27.824Z,13.60
2022-11-09T07:03:59.659Z,13.60
2022-11-09T07:08:59.322Z,13.60
2022-11-09T07:13:59.501Z,13.60
2022-11-09T07:16:28.807Z,13.70
2022-11-09T07:18:58.517Z,13.70
2022-11-09T07:21:26.708Z,13.70
2022-11-09T07:28:57.448Z,13.70
2022-11-09T07:36:34.419Z,13.90
2022-11-09T07:39:02.576Z,13.80
2022-11-09T08:12:08.460Z,14.00
2022-11-09T08:17:07.812Z,14.00
2022-11-09T08:24:38.976Z,14.10
2022-11-09T08:27:07.377Z,14.20
2022-11-09T08:32:05.415Z,14.20
2022-11-09T08:34:33.817Z,14.30
2022-11-09T08:37:03.294Z,14.10
2022-11-09T08:42:02.875Z,14.10
2022-11-09T08:49:32.378Z,13.50
2022-11-09T08:54:30.382Z,13.40
2022-11-09T08:57:01.143Z,13.20
2022-11-09T08:59:30.495Z,13.50
2022-11-09T09:02:00.012Z,13.80
2022-11-09T09:04:28.526Z,13.70
2022-11-09T09:11:58.238Z,13.90
2022-11-09T09:16:57.559Z,13.70
2022-11-09T09:26:57.785Z,14.30
2022-11-09T09:34:28.076Z,14.80
2022-11-09T09:36:57.872Z,15.20
2022-11-09T09:41:57.530Z,15.80
2022-11-09T09:44:35.367Z,15.80
2022-11-09T09:47:13.400Z,15.70
2022-11-09T09:49:46.457Z,15.60
2022-11-09T09:52:26.462Z,15.30
2022-11-09T09:55:06.356Z,15.40
2022-11-09T10:02:53.697Z,16.80
2022-11-09T10:05:28.272Z,17.10
2022-11-09T10:10:47.052Z,17.20
2022-11-09T10:13:40.321Z,17.70
2022-11-09T10:16:21.991Z,18.30
2022-11-09T10:19:25.223Z,18.90
2022-11-09T10:27:37.727Z,18.40
2022-11-09T10:30:16.131Z,17.70
2022-11-09T10:32:51.982Z,17.20
2022-11-09T10:35:25.467Z,17.20
2022-11-09T10:37:56.518Z,17.30
2022-11-09T10:43:18.170Z,17.80
2022-11-09T10:46:08.959Z,18.20
2022-11-09T10:48:58.674Z,17.40
2022-11-09T10:51:47.437Z,16.50
2022-11-09T10:54:38.119Z,16.10
2022-11-09T10:57:26.484Z,15.90
2022-11-09T11:03:18.383Z,15.70
2022-11-09T11:06:17.216Z,15.50
2022-11-09T11:09:20.879Z,15.50
2022-11-09T11:12:18.079Z,15.40
2022-11-09T11:18:20.690Z,15.30
2022-11-09T11:21:18.932Z,15.00
2022-11-09T11:24:16.287Z,15.50
2022-11-09T11:27:12.011Z,15.60
2022-11-09T11:30:10.778Z,15.70
2022-11-09T11:32:58.322Z,15.70
2022-11-09T11:35:54.301Z,15.70
2022-11-09T11:38:59.215Z,15.80
2022-11-09T11:42:02.586Z,15.80
2022-11-09T11:48:44.447Z,15.80
2022-11-09T11:54:43.466Z,15.90
2022-11-09T12:00:26.720Z,16.70
2022-11-09T12:03:53.618Z,17.20
2022-11-09T12:10:04.650Z,18.20
2022-11-09T12:13:07.312Z,19.00
2022-11-09T12:22:01.882Z,20.30
2022-11-09T12:25:02.037Z,20.50
2022-11-09T12:28:13.301Z,20.10
2022-11-09T12:31:25.569Z,19.40
2022-11-09T12:34:22.034Z,19.10
2022-11-09T12:37:18.242Z,19.00
2022-11-09T12:40:23.427Z,18.50
2022-11-09T12:43:22.864Z,17.80
2022-11-09T12:46:12.958Z,17.00
2022-11-09T12:49:06.569Z,16.60
2022-11-09T12:51:58.838Z,16.60
2022-11-09T12:54:51.209Z,17.20
2022-11-09T12:57:41.657Z,17.60
2022-11-09T13:00:51.745Z,18.30
2022-11-09T13:03:55.583Z,18.80
2022-11-09T13:06:43.551Z,18.70
2022-11-09T13:09:44.147Z,18.60
2022-11-09T13:15:34.136Z,18.20
2022-11-09T13:18:28.105Z,17.80
2022-11-09T13:24:59.681Z,18.40
2022-11-09T13:27:50.166Z,18.30
2022-11-09T13:30:47.941Z,18.60
2022-11-09T13:33:36.132Z,18.60
2022-11-09T13:36:24.514Z,18.60
2022-11-09T13:39:33.793Z,18.10
2022-11-09T13:42:33.575Z,17.40
2022-11-09T13:48:43.004Z,16.30
2022-11-09T13:51:50.330Z,16.10
2022-11-09T13:54:45.168Z,16.00
2022-11-09T13:57:34.843Z,16.00
2022-11-09T14:00:25.007Z,15.70
2022-11-09T14:03:23.868Z,15.60
2022-11-09T14:09:04.058Z,15.60
2022-11-09T14:12:13.599Z,15.70
2022-11-09T14:15:20.682Z,15.60
2022-11-09T14:21:22.543Z,15.30
2022-11-09T14:30:21.059Z,15.00
2022-11-09T14:33:26.718Z,14.90
2022-11-09T14:36:15.231Z,14.80
2022-11-09T14:39:06.028Z,14.70
2022-11-09T14:41:55.876Z,14.60
2022-11-09T14:44:45.777Z,14.70
2022-11-09T14:47:38.819Z,14.70
2022-11-09T14:50:30.514Z,14.70
2022-11-09T14:53:22.590Z,14.80
2022-11-09T14:56:17.111Z,14.70
2022-11-09T14:59:08.407Z,14.70
2022-11-09T15:04:59.104Z,14.40
2022-11-09T15:10:40.693Z,14.20
2022-11-09T15:13:36.087Z,14.10
2022-11-09T15:16:33.679Z,13.90
2022-11-09T15:22:53.953Z,13.70
2022-11-09T15:25:57.699Z,13.70
2022-11-09T15:28:49.313Z,13.70
2022-11-09T15:34:28.047Z,13.80
2022-11-09T15:37:29.666Z,13.80
2022-11-09T15:40:20.258Z,13.80
2022-11-09T15:43:08.076Z,13.70
2022-11-09T15:48:50.174Z,13.80
2022-11-09T16:08:49.249Z,13.70
2022-11-09T16:11:36.231Z,13.80
2022-11-09T16:17:10.603Z,13.40
2022-11-09T16:19:58.592Z,13.40
2022-11-09T16:28:25.302Z,13.20
2022-11-09T16:31:16.049Z,13.20
2022-11-09T16:39:44.957Z,13.10
2022-11-09T16:48:20.991Z,12.90
2022-11-09T16:51:09.352Z,13.00
2022-11-09T16:53:57.390Z,12.90
2022-11-09T17:02:27.412Z,12.90
2022-11-09T17:05:14.103Z,12.90
2022-11-09T17:13:40.276Z,13.00
2022-11-09T17:16:29.634Z,12.80
2022-11-09T17:27:44.440Z,12.40
2022-11-09T17:30:35.033Z,12.30
2022-11-09T17:33:24.646Z,12.30
2022-11-09T17:36:29.689Z,12.30
2022-11-09T17:39:24.297Z,12.20
2022-11-09T17:42:11.352Z,12.20
2022-11-09T17:44:59.694Z,12.10
2022-11-09T17:59:02.431Z,12.00
2022-11-09T18:04:39.611Z,12.40
2022-11-09T18:13:04.230Z,12.40
2022-11-09T18:18:39.667Z,12.60
2022-11-09T18:27:05.988Z,12.60
2022-11-09T18:32:45.195Z,12.40
2022-11-09T18:38:26.725Z,12.20
2022-11-09T18:44:09.344Z,12.00
2022-11-09T18:47:02.117Z,11.90
2022-11-09T18:52:42.445Z,11.70
2022-11-09T18:55:30.814Z,11.70
2022-11-09T19:09:38.531Z,11.60
2022-11-09T19:15:17.751Z,11.80
2022-11-09T19:23:44.294Z,11.80
2022-11-09T19:26:34.020Z,11.60
2022-11-09T19:29:20.871Z,11.50
2022-11-09T19:37:45.070Z,11.30
2022-11-09T19:43:29.695Z,11.40
2022-11-09T19:57:32.032Z,11.70
2022-11-09T20:03:09.889Z,11.70
2022-11-09T20:05:58.160Z,11.70
2022-11-09T20:08:47.291Z,11.70
2022-11-09T20:23:09.862Z,11.60
2022-11-09T20:28:55.505Z,11.60
2022-11-09T20:31:43.830Z,11.20
2022-11-09T20:34:33.028Z,11.80
2022-11-09T20:45:47.811Z,11.90
2022-11-09T20:48:53.574Z,11.90
2022-11-09T20:51:43.718Z,11.80
2022-11-09T20:54:31.850Z,11.90
2022-11-09T20:57:21.214Z,11.90
2022-11-09T21:00:10.428Z,11.90
2022-11-09T21:14:47.057Z,12.00
2022-11-09T21:23:33.213Z,12.00
2022-11-09T21:26:41.890Z,11.90
2022-11-09T21:29:47.384Z,12.10
2022-11-09T21:32:36.572Z,12.00
2022-11-09T21:38:13.044Z,11.90
2022-11-09T21:41:21.604Z,12.00
2022-11-09T21:44:12.813Z,11.90
2022-11-09T21:47:02.072Z,11.70
2022-11-09T21:49:48.993Z,11.80
2022-11-09T21:58:12.739Z,11.50
2022-11-09T22:01:03.480Z,11.50
2022-11-09T22:03:53.070Z,11.40
2022-11-09T22:12:57.782Z,11.50
2022-11-09T22:16:03.214Z,11.30
2022-11-09T22:19:10.227Z,11.30
2022-11-09T22:24:47.103Z,11.00
2022-11-09T22:27:35.854Z,10.90
2022-11-09T22:30:24.091Z,10.90
2022-11-09T22:33:13.476Z,10.80
2022-11-09T22:36:05.240Z,10.80
2022-11-09T22:41:43.694Z,10.70
2022-11-09T22:44:31.969Z,10.50
2022-11-09T22:47:19.603Z,10.40
2022-11-09T22:53:03.641Z,10.30
2022-11-09T23:01:31.769Z,10.20
2022-11-09T23:09:59.510Z,10.20
2022-11-09T23:12:47.641Z,10.30
2022-11-09T23:21:31.659Z,10.60
2022-11-09T23:27:24.448Z,10.90
2022-11-09T23:30:15.523Z,10.70
2022-11-09T23:33:04.136Z,10.80
2022-11-09T23:35:51.957Z,10.90
2022-11-09T23:38:43.213Z,10.90
2022-11-09T23:41:31.506Z,11.00
2022-11-09T23:44:20.741Z,11.00
2022-11-09T23:47:07.749Z,11.10
2022-11-09T23:49:54.607Z,11.00
2022-11-09T23:52:42.667Z,11.00
2022-11-09T23:55:31.625Z,11.00
2022-11-09T23:58:19.593Z,10.90
